createdAt,value
2023-05-04T00:02:40.781Z,70.91
2023-05-04T00:06:23.612Z,71.24
2023-05-04T00:10:07.984Z,71.16
2023-05-04T00:13:52.366Z,71.32
2023-05-04T00:17:35.097Z,71.48
2023-05-04T00:21:17.909Z,71.54
2023-05-04T00:25:00.641Z,71.84
2023-05-04T00:28:43.333Z,72.02
2023-05-04T00:32:27.688Z,72.38
2023-05-04T00:36:10.801Z,72.51
2023-05-04T00:39:53.631Z,72.55
2023-05-04T00:43:36.358Z,72.33
2023-05-04T00:47:19.956Z,72.51
2023-05-04T00:51:04.214Z,72.54
2023-05-04T00:54:47.903Z,72.32
2023-05-04T00:58:30.929Z,72.31
2023-05-04T01:02:13.708Z,72.14
2023-05-04T01:06:05.916Z,72.13
2023-05-04T01:09:52.132Z,72.26
2023-05-04T01:13:36.092Z,72.05
2023-05-04T01:17:18.801Z,71.89
2023-05-04T01:21:01.493Z,71.98
2023-05-04T01:24:45.718Z,71.97
2023-05-04T01:28:34.619Z,72.02
2023-05-04T01:32:19.161Z,71.85
2023-05-04T01:36:02.273Z,71.97
2023-05-04T01:39:46.381Z,72.03
2023-05-04T01:43:29.150Z,72.08
2023-05-04T01:47:11.947Z,71.69
2023-05-04T01:50:55.676Z,71.91
2023-05-04T01:54:38.472Z,71.86
2023-05-04T01:58:22.730Z,72.11
2023-05-04T02:02:05.611Z,72.20
2023-05-04T02:05:48.309Z,72.48
2023-05-04T02:09:31.780Z,72.48
2023-05-04T02:13:14.521Z,72.18
2023-05-04T02:16:58.893Z,72.80
2023-05-04T02:20:41.921Z,72.99
2023-05-04T02:24:24.696Z,73.19
2023-05-04T02:28:07.488Z,73.28
2023-05-04T02:31:50.567Z,73.58
2023-05-04T02:35:34.664Z,73.81
2023-05-04T02:39:17.493Z,73.73
2023-05-04T02:43:00.270Z,74.32
2023-05-04T02:46:44.083Z,73.91
2023-05-04T02:50:26.733Z,74.04
2023-05-04T02:54:10.752Z,73.93
2023-05-04T02:57:53.419Z,73.72
2023-05-04T03:01:36.220Z,74.04
2023-05-04T03:05:18.928Z,74.14
2023-05-04T03:09:01.910Z,74.06
2023-05-04T03:12:46.358Z,74.51
2023-05-04T03:16:29.210Z,74.75
2023-05-04T03:20:14.063Z,75.60
2023-05-04T03:23:59.329Z,75.53
2023-05-04T03:27:42.077Z,75.58
2023-05-04T03:31:26.278Z,75.68
2023-05-04T03:35:09.805Z,75.94
2023-05-04T03:38:52.491Z,75.97
2023-05-04T03:42:35.178Z,76.22
2023-05-04T03:46:17.886Z,76.19
2023-05-04T03:50:02.606Z,76.26
2023-05-04T03:53:45.711Z,76.38
2023-05-04T03:57:28.469Z,76.44
2023-05-04T04:01:11.132Z,80.12
2023-05-04T04:04:53.795Z,83.59
2023-05-04T04:08:37.899Z,83.21
2023-05-04T04:12:20.855Z,79.42
2023-05-04T04:16:03.663Z,77.97
2023-05-04T04:19:46.382Z,77.56
2023-05-04T04:23:29.133Z,76.71
2023-05-04T04:27:13.732Z,77.06
2023-05-04T04:30:56.758Z,76.71
2023-05-04T04:34:39.765Z,76.37
2023-05-04T04:38:22.443Z,76.47
2023-05-04T04:42:05.116Z,76.70
2023-05-04T04:45:49.513Z,76.14
2023-05-04T04:49:32.276Z,76.24
2023-05-04T04:53:14.900Z,76.49
2023-05-04T04:57:00.587Z,76.25
2023-05-04T05:00:45.310Z,75.91
2023-05-04T05:04:29.663Z,76.61
2023-05-04T05:08:12.337Z,76.52
2023-05-04T05:11:55.014Z,76.13
2023-05-04T05:15:37.696Z,76.09
2023-05-04T05:19:20.515Z,76.32
2023-05-04T05:23:05.341Z,76.08
2023-05-04T05:26:48.338Z,81.63
2023-05-04T05:30:31.292Z,70.88
2023-05-04T05:34:14.008Z,66.20
2023-05-04T05:37:57.060Z,67.66
2023-05-04T05:41:41.242Z,68.83
2023-05-04T05:45:24.164Z,69.54
2023-05-04T05:49:07.438Z,70.45
2023-05-04T05:52:50.311Z,70.78
2023-05-04T05:56:32.984Z,71.48
2023-05-04T06:00:18.637Z,71.78
2023-05-04T06:04:04.061Z,72.13
2023-05-04T06:07:47.065Z,72.57
2023-05-04T06:11:29.771Z,73.06
2023-05-04T06:15:14.412Z,73.58
2023-05-04T06:18:58.418Z,73.65
2023-05-04T06:22:41.165Z,73.18
2023-05-04T06:26:23.827Z,73.14
2023-05-04T06:30:08.162Z,72.94
2023-05-04T06:33:51.181Z,73.35
2023-05-04T06:37:35.446Z,73.46
2023-05-04T06:41:18.227Z,74.09
2023-05-04T06:45:01.125Z,74.29
2023-05-04T06:48:43.813Z,73.41
2023-05-04T06:52:29.582Z,73.04
2023-05-04T06:56:13.690Z,72.96
2023-05-04T06:59:56.384Z,72.14
2023-05-04T07:03:39.326Z,71.34
2023-05-04T07:07:22.199Z,71.33
2023-05-04T07:11:05.480Z,70.85
2023-05-04T07:14:49.769Z,70.68
2023-05-04T07:18:32.572Z,70.35
2023-05-04T07:22:15.251Z,69.32
2023-05-04T07:25:57.957Z,68.53
2023-05-04T07:29:41.681Z,68.43
2023-05-04T07:33:26.628Z,68.24
2023-05-04T07:37:09.798Z,68.20
2023-05-04T07:40:52.744Z,68.13
2023-05-04T07:44:35.536Z,67.06
2023-05-04T07:48:18.292Z,65.91
2023-05-04T07:52:02.403Z,65.61
2023-05-04T07:55:45.138Z,65.07
2023-05-04T07:59:27.806Z,64.59
2023-05-04T08:03:11.054Z,65.10
2023-05-04T08:06:53.877Z,64.94
2023-05-04T08:10:38.748Z,64.18
2023-05-04T08:14:21.870Z,63.51
2023-05-04T08:18:04.640Z,61.46
2023-05-04T08:21:47.437Z,61.15
2023-05-04T08:25:30.090Z,60.58
2023-05-04T08:29:14.244Z,59.68
2023-05-04T08:33:00.409Z,58.75
2023-05-04T08:36:43.159Z,58.63
2023-05-04T08:40:25.860Z,58.95
2023-05-04T08:44:10.119Z,57.98
2023-05-04T08:47:54.297Z,56.29
2023-05-04T08:51:37.454Z,56.15
2023-05-04T08:55:20.886Z,55.05
2023-05-04T08:59:03.919Z,55.17
2023-05-04T09:02:47.124Z,55.63
2023-05-04T09:06:32.592Z,54.67
2023-05-04T09:10:15.399Z,54.60
2023-05-04T09:13:58.317Z,52.98
2023-05-04T09:17:50.934Z,52.73
2023-05-04T09:21:41.319Z,52.48
2023-05-04T09:25:24.419Z,52.09
2023-05-04T09:29:13.875Z,50.27
2023-05-04T09:32:57.246Z,50.76
2023-05-04T09:36:42.117Z,51.35
2023-05-04T09:40:32.562Z,48.25
2023-05-04T09:44:22.462Z,48.92
2023-05-04T09:48:16.298Z,49.92
2023-05-04T09:52:02.509Z,48.12
2023-05-04T09:55:46.833Z,48.43
2023-05-04T09:59:30.496Z,48.98
2023-05-04T10:03:14.367Z,49.01
2023-05-04T10:06:57.185Z,49.41
2023-05-04T10:10:41.404Z,50.43
2023-05-04T10:14:25.066Z,50.51
2023-05-04T10:18:16.528Z,48.42
2023-05-04T10:22:09.221Z,50.37
2023-05-04T10:26:30.298Z,47.88
2023-05-04T10:30:16.813Z,47.79
2023-05-04T10:33:59.530Z,48.79
2023-05-04T10:37:51.832Z,47.57
2023-05-04T10:41:34.537Z,49.22
2023-05-04T10:45:18.840Z,48.43
2023-05-04T10:49:01.700Z,48.19
2023-05-04T10:52:47.977Z,47.65
2023-05-04T10:56:31.168Z,47.34
2023-05-04T11:00:15.085Z,46.81
2023-05-04T11:03:59.620Z,45.92
2023-05-04T11:07:42.336Z,45.65
2023-05-04T11:11:25.396Z,47.54
2023-05-04T11:15:09.317Z,46.32
2023-05-04T11:18:52.082Z,45.46
2023-05-04T11:22:36.190Z,45.17
2023-05-04T11:26:18.939Z,44.76
2023-05-04T11:30:03.044Z,44.60
2023-05-04T11:33:48.071Z,45.92
2023-05-04T11:37:30.944Z,45.12
2023-05-04T11:41:15.053Z,46.53
2023-05-04T11:44:57.846Z,45.70
2023-05-04T11:48:40.956Z,44.16
2023-05-04T11:52:24.218Z,44.74
2023-05-04T11:56:08.767Z,46.28
2023-05-04T11:59:52.826Z,46.09
2023-05-04T12:03:48.608Z,45.71
2023-05-04T12:07:37.846Z,43.49
2023-05-04T12:11:25.911Z,45.19
2023-05-04T12:15:11.333Z,45.36
2023-05-04T12:19:02.891Z,44.46
2023-05-04T12:22:45.878Z,44.30
2023-05-04T12:26:28.872Z,44.71
2023-05-04T12:30:14.164Z,42.93
2023-05-04T12:33:56.859Z,41.39
2023-05-04T12:37:39.575Z,42.02
2023-05-04T12:41:22.554Z,41.24
2023-05-04T12:45:06.521Z,42.32
2023-05-04T12:48:50.779Z,42.72
2023-05-04T12:52:33.533Z,40.67
2023-05-04T12:56:16.293Z,36.39
2023-05-04T12:59:59.169Z,39.58
2023-05-04T13:03:42.071Z,39.63
2023-05-04T13:07:26.351Z,39.52
2023-05-04T13:11:09.012Z,38.33
2023-05-04T13:14:55.332Z,38.51
2023-05-04T13:18:38.217Z,38.57
2023-05-04T13:22:20.905Z,36.95
2023-05-04T13:26:05.020Z,37.25
2023-05-04T13:29:47.722Z,36.53
2023-05-04T13:33:31.049Z,34.28
2023-05-04T13:37:18.165Z,34.62
2023-05-04T13:41:00.903Z,34.85
2023-05-04T13:44:45.662Z,33.95
2023-05-04T13:48:28.363Z,33.10
2023-05-04T13:52:11.532Z,33.58
2023-05-04T13:55:54.149Z,33.48
2023-05-04T13:59:36.771Z,33.00
2023-05-04T14:03:20.890Z,32.56
2023-05-04T14:07:03.921Z,32.06
2023-05-04T14:10:46.615Z,30.87
2023-05-04T14:14:29.720Z,30.74
2023-05-04T14:18:12.903Z,30.78
2023-05-04T14:21:56.937Z,29.66
2023-05-04T14:25:41.983Z,30.68
2023-05-04T14:29:24.709Z,30.43
2023-05-04T14:33:07.412Z,30.29
2023-05-04T14:36:51.721Z,30.81
2023-05-04T14:40:37.008Z,31.77
2023-05-04T14:44:22.524Z,32.22
2023-05-04T14:48:05.840Z,32.65
2023-05-04T14:51:49.086Z,31.27
2023-05-04T14:55:33.481Z,30.98
2023-05-04T14:59:19.659Z,30.16
2023-05-04T15:03:02.584Z,29.48
2023-05-04T15:06:45.368Z,29.17
2023-05-04T15:10:28.040Z,29.91
2023-05-04T15:14:10.692Z,28.56
2023-05-04T15:17:54.831Z,28.43
2023-05-04T15:21:37.569Z,28.38
2023-05-04T15:25:23.317Z,27.29
2023-05-04T15:29:06.991Z,27.57
2023-05-04T15:32:49.734Z,27.23
2023-05-04T15:36:33.766Z,27.69
2023-05-04T15:40:16.452Z,27.39
2023-05-04T15:43:59.580Z,26.95
2023-05-04T15:47:42.378Z,26.58
2023-05-04T15:51:25.074Z,26.59
2023-05-04T15:55:24.460Z,26.08
2023-05-04T15:59:08.284Z,25.80
2023-05-04T16:02:51.019Z,24.83
2023-05-04T16:06:33.707Z,23.27
2023-05-04T16:10:17.818Z,23.13
2023-05-04T16:14:00.484Z,21.84
2023-05-04T16:17:43.194Z,21.93
2023-05-04T16:21:25.974Z,22.15
2023-05-04T16:25:11.228Z,21.01
2023-05-04T16:28:56.620Z,21.92
2023-05-04T16:32:39.416Z,21.77
2023-05-04T16:36:22.128Z,22.03
2023-05-04T16:40:13.503Z,22.88
2023-05-04T16:43:57.532Z,24.02
2023-05-04T16:47:40.222Z,24.49
2023-05-04T16:51:23.028Z,25.71
2023-05-04T16:55:09.029Z,28.07
2023-05-04T16:58:53.434Z,28.62
2023-05-04T17:02:37.691Z,30.34
2023-05-04T17:06:20.468Z,30.84
2023-05-04T17:10:06.925Z,31.30
2023-05-04T17:13:49.741Z,32.01
2023-05-04T17:17:32.476Z,33.67
2023-05-04T17:21:16.610Z,34.51
2023-05-04T17:24:59.275Z,34.06
2023-05-04T17:28:42.024Z,34.59
2023-05-04T17:32:24.757Z,35.38
2023-05-04T17:36:08.159Z,35.60
2023-05-04T17:39:52.218Z,36.39
2023-05-04T17:43:34.916Z,36.97
2023-05-04T17:47:17.569Z,37.61
2023-05-04T17:51:00.651Z,38.00
2023-05-04T17:54:43.314Z,38.66
2023-05-04T17:58:27.381Z,39.20
2023-05-04T18:02:10.073Z,39.09
2023-05-04T18:05:52.783Z,39.56
2023-05-04T18:09:35.442Z,39.75
2023-05-04T18:13:18.271Z,38.36
2023-05-04T18:17:02.472Z,38.85
2023-05-04T18:20:45.233Z,38.90
2023-05-04T18:24:27.904Z,39.65
2023-05-04T18:28:10.630Z,40.66
2023-05-04T18:31:53.369Z,41.57
2023-05-04T18:35:37.423Z,41.49
2023-05-04T18:39:20.299Z,42.31
2023-05-04T18:43:03.039Z,42.21
2023-05-04T18:46:46.094Z,42.82
2023-05-04T18:50:28.793Z,42.80
2023-05-04T18:54:14.881Z,42.96
2023-05-04T18:57:57.648Z,43.03
2023-05-04T19:01:40.447Z,42.74
2023-05-04T19:05:23.288Z,42.90
2023-05-04T19:09:07.959Z,42.75
2023-05-04T19:12:53.197Z,42.67
2023-05-04T19:16:35.947Z,42.58
2023-05-04T19:20:19.467Z,42.63
2023-05-04T19:24:02.319Z,42.63
2023-05-04T19:27:45.622Z,42.44
2023-05-04T19:31:30.139Z,42.54
2023-05-04T19:35:14.365Z,42.82
2023-05-04T19:38:57.373Z,42.98
2023-05-04T19:42:46.111Z,42.86
2023-05-04T19:46:31.952Z,42.91
2023-05-04T19:50:16.359Z,43.16
2023-05-04T19:53:59.222Z,43.68
2023-05-04T19:57:41.923Z,44.23
2023-05-04T20:01:25.085Z,44.54
2023-05-04T20:05:09.776Z,44.93
2023-05-04T20:08:53.860Z,44.88
2023-05-04T20:12:36.630Z,45.13
2023-05-04T20:16:19.552Z,45.30
2023-05-04T20:20:03.769Z,45.60
2023-05-04T20:23:47.796Z,45.51
2023-05-04T20:27:30.687Z,45.87
2023-05-04T20:31:13.377Z,46.47
2023-05-04T20:34:56.148Z,46.78
2023-05-04T20:38:39.809Z,47.20
2023-05-04T20:42:23.871Z,47.01
2023-05-04T20:46:06.733Z,47.29
2023-05-04T20:49:49.483Z,47.05
2023-05-04T20:53:36.357Z,47.53
2023-05-04T20:57:19.087Z,47.55
2023-05-04T21:01:05.257Z,47.67
2023-05-04T21:04:48.642Z,47.96
2023-05-04T21:08:31.365Z,48.13
2023-05-04T21:12:14.273Z,48.50
2023-05-04T21:15:59.571Z,48.38
2023-05-04T21:19:43.723Z,48.08
2023-05-04T21:23:26.455Z,48.75
2023-05-04T21:27:09.142Z,49.09
2023-05-04T21:30:51.981Z,50.01
2023-05-04T21:34:34.682Z,49.70
2023-05-04T21:38:21.167Z,49.17
2023-05-04T21:42:05.087Z,49.69
2023-05-04T21:45:47.828Z,50.37
2023-05-04T21:49:30.487Z,50.20
2023-05-04T21:53:13.150Z,50.40
2023-05-04T21:56:57.230Z,50.86
2023-05-04T22:00:39.993Z,51.36
2023-05-04T22:04:22.858Z,51.59
2023-05-04T22:08:05.558Z,51.26
2023-05-04T22:11:48.552Z,52.01
2023-05-04T22:15:46.389Z,52.02
2023-05-04T22:19:32.432Z,52.64
2023-05-04T22:23:15.187Z,52.68
2023-05-04T22:27:00.321Z,52.38
2023-05-04T22:30:44.552Z,52.13
2023-05-04T22:34:27.505Z,52.08
2023-05-04T22:38:10.906Z,52.06
2023-05-04T22:41:53.795Z,51.82
2023-05-04T22:45:40.220Z,52.10
2023-05-04T22:49:24.376Z,52.25
2023-05-04T22:53:07.272Z,52.50
2023-05-04T22:56:51.024Z,52.69
2023-05-04T23:00:33.748Z,52.80
2023-05-04T23:04:19.120Z,53.02
2023-05-04T23:08:03.737Z,54.08
2023-05-04T23:11:48.543Z,54.67
2023-05-04T23:15:32.722Z,54.55
2023-05-04T23:19:15.359Z,54.43
2023-05-04T23:22:58.215Z,53.94
2023-05-04T23:26:42.238Z,53.81
2023-05-04T23:30:24.884Z,53.74
2023-05-04T23:34:07.713Z,53.97
2023-05-04T23:37:50.399Z,54.62
2023-05-04T23:41:33.267Z,54.01
2023-05-04T23:45:17.438Z,54.25
2023-05-04T23:49:00.119Z,55.44
2023-05-04T23:52:42.812Z,57.48
2023-05-04T23:56:25.450Z,56.29
